Time;durP1;ratioP1;P1;durP2;ratioP2;P2;SDS_P1;SDS_P2;PMS_P1;PMS_P2;Temp;Humidity;BMP_temperature;BMP_pressure;BME280_temperature;BME280_humidity;BME280_pressure;Samples;Min_cycle;Max_cycle;Signal;HPM_P1;HPM_P2
2023/04/23 00:00:23;;;;;;;30.98;27.65;;;13.90;99.90;;;;;;2092315;28;20028;-70
2023/04/23 00:01:26;;;;;;;38.53;34.33;;;13.80;99.90;;;;;;2092634;28;20025;-70
2023/04/23 00:02:32;;;;;;;40.13;35.80;;;13.90;99.90;;;;;;2091392;28;20037;-70
2023/04/23 00:03:33;;;;;;;38.45;33.50;;;13.90;99.90;;;;;;2093085;28;20060;-70
2023/04/23 00:04:36;;;;;;;37.00;31.63;;;13.80;99.90;;;;;;2091928;28;20056;-70
2023/04/23 00:05:38;;;;;;;42.28;36.33;;;13.90;99.90;;;;;;2092191;28;20028;-70
2023/04/23 00:06:40;;;;;;;42.08;37.58;;;13.90;99.90;;;;;;2091836;28;20464;-70
2023/04/23 00:07:41;;;;;;;38.33;33.75;;;13.90;99.90;;;;;;2093500;28;20044;-70
2023/04/23 00:08:42;;;;;;;39.38;34.75;;;13.90;99.90;;;;;;2091554;28;20031;-70
2023/04/23 00:09:44;;;;;;;44.70;38.25;;;13.90;99.90;;;;;;2090450;28;20109;-70
2023/04/23 00:10:45;;;;;;;34.05;30.38;;;13.90;99.90;;;;;;2092641;28;20044;-70
2023/04/23 00:11:46;;;;;;;37.17;33.15;;;13.90;99.90;;;;;;2090085;28;20077;-70
2023/04/23 00:12:46;;;;;;;37.75;33.67;;;13.90;99.90;;;;;;2091698;28;20078;-70
2023/04/23 00:13:48;;;;;;;40.53;34.08;;;13.90;99.90;;;;;;2091522;28;20025;-70
2023/04/23 00:14:49;;;;;;;36.63;32.78;;;13.90;99.90;;;;;;2091891;28;20076;-70
2023/04/23 00:15:49;;;;;;;35.60;31.80;;;13.90;99.90;;;;;;2092028;28;20153;-70
2023/04/23 00:16:51;;;;;;;42.50;37.55;;;13.90;99.90;;;;;;2090706;28;20052;-70
2023/04/23 00:17:52;;;;;;;37.50;33.38;;;13.90;99.90;;;;;;2093141;28;20035;-70
2023/04/23 00:18:52;;;;;;;38.25;33.92;;;13.90;99.90;;;;;;2092081;28;20032;-70
2023/04/23 00:19:53;;;;;;;41.15;35.03;;;13.90;99.90;;;;;;2090038;28;20032;-70
2023/04/23 00:20:54;;;;;;;44.08;38.17;;;13.90;99.90;;;;;;2092778;28;20108;-70
2023/04/23 00:21:54;;;;;;;40.17;35.53;;;13.90;99.90;;;;;;2087483;28;20033;-70
2023/04/23 00:22:55;;;;;;;32.22;28.73;;;13.90;99.90;;;;;;2090961;28;20033;-70
2023/04/23 00:23:55;;;;;;;31.88;28.10;;;13.90;99.90;;;;;;2089878;28;20115;-70
2023/04/23 00:24:56;;;;;;;43.10;36.45;;;13.90;99.90;;;;;;2092551;28;20032;-70
2023/04/23 00:25:56;;;;;;;38.05;33.70;;;13.90;99.90;;;;;;2093204;28;20064;-70
2023/04/23 00:26:57;;;;;;;36.35;32.50;;;13.90;99.90;;;;;;2091109;28;20106;-70
2023/04/23 00:27:58;;;;;;;36.70;31.60;;;13.90;99.90;;;;;;2093599;28;20024;-70
2023/04/23 00:28:58;;;;;;;41.42;37.03;;;13.90;99.90;;;;;;2092749;28;20078;-70
2023/04/23 00:29:59;;;;;;;40.17;35.78;;;13.90;99.90;;;;;;2091212;28;20056;-70
2023/04/23 00:30:59;;;;;;;43.15;38.03;;;13.90;99.90;;;;;;2092272;28;20024;-70
2023/04/23 00:32:02;;;;;;;43.17;37.17;;;13.90;99.90;;;;;;2093014;28;20108;-70
2023/04/23 00:33:02;;;;;;;44.42;37.35;;;13.80;99.90;;;;;;2093287;28;20474;-70
2023/04/23 00:34:03;;;;;;;42.67;37.88;;;13.80;99.90;;;;;;2092503;28;20028;-70
2023/04/23 00:35:04;;;;;;;47.95;39.50;;;13.80;99.90;;;;;;2091878;28;20020;-70
2023/04/23 00:36:05;;;;;;;40.25;32.28;;;13.80;99.90;;;;;;2092226;28;20035;-70
2023/04/23 00:37:06;;;;;;;34.67;30.85;;;13.80;99.90;;;;;;2091753;28;20067;-70
2023/04/23 00:38:07;;;;;;;43.30;37.00;;;13.80;99.90;;;;;;2093586;28;20102;-70
2023/04/23 00:39:09;;;;;;;39.28;33.90;;;13.80;99.90;;;;;;2091511;28;20036;-70
2023/04/23 00:40:10;;;;;;;49.67;40.30;;;13.80;99.90;;;;;;2092488;28;20036;-70
2023/04/23 00:41:12;;;;;;;39.05;33.58;;;13.80;99.90;;;;;;2093502;28;20095;-70
2023/04/23 00:42:13;;;;;;;40.33;34.28;;;13.80;99.90;;;;;;2093092;28;20399;-69
2023/04/23 00:43:14;;;;;;;47.90;39.45;;;13.80;99.90;;;;;;2091204;28;20071;-70
2023/04/23 00:44:14;;;;;;;44.08;37.50;;;13.80;99.90;;;;;;2090298;28;20028;-70
2023/04/23 00:45:15;;;;;;;44.10;37.50;;;13.80;99.90;;;;;;2089087;28;20052;-70
2023/04/23 00:46:16;;;;;;;47.72;37.60;;;13.80;99.90;;;;;;2091394;28;20589;-70
2023/04/23 00:47:17;;;;;;;47.13;40.22;;;13.80;99.90;;;;;;2090311;28;20318;-70
2023/04/23 00:48:17;;;;;;;40.88;35.10;;;13.80;99.90;;;;;;2091591;28;20032;-70
2023/04/23 00:49:18;;;;;;;44.00;38.83;;;13.70;99.90;;;;;;2090486;28;20491;-70
2023/04/23 00:50:19;;;;;;;40.05;33.92;;;13.80;99.90;;;;;;2089134;28;20370;-70
2023/04/23 00:51:22;;;;;;;46.20;38.17;;;13.70;99.90;;;;;;2090704;28;20159;-70
2023/04/23 00:52:22;;;;;;;47.80;41.47;;;13.80;99.90;;;;;;2093014;28;20473;-70
2023/04/23 00:53:23;;;;;;;46.15;39.63;;;13.70;99.90;;;;;;2092638;28;21255;-70
2023/04/23 00:54:23;;;;;;;38.00;32.78;;;13.70;99.90;;;;;;2091733;28;20036;-71
2023/04/23 00:55:24;;;;;;;46.45;39.85;;;13.70;99.90;;;;;;2090537;28;20028;-70
2023/04/23 00:56:26;;;;;;;35.33;30.60;;;13.80;99.90;;;;;;2091186;28;20131;-70
2023/04/23 00:57:27;;;;;;;38.25;32.97;;;13.80;99.90;;;;;;2091307;28;20021;-70
2023/04/23 00:58:28;;;;;;;41.70;36.20;;;13.70;99.90;;;;;;2092878;28;20044;-70
2023/04/23 00:59:30;;;;;;;37.72;33.45;;;13.70;99.90;;;;;;2091358;28;20025;-70
2023/04/23 01:00:32;;;;;;;37.85;33.60;;;13.70;99.90;;;;;;2092556;28;20412;-70
2023/04/23 01:01:33;;;;;;;43.80;37.40;;;13.70;99.90;;;;;;2092386;28;20111;-70
2023/04/23 01:02:35;;;;;;;45.40;39.40;;;13.70;99.90;;;;;;2090616;28;20017;-70
2023/04/23 01:03:37;;;;;;;43.88;37.65;;;13.70;99.90;;;;;;2090751;28;20948;-70
2023/04/23 01:04:39;;;;;;;41.80;37.25;;;13.70;99.90;;;;;;2092401;28;20423;-70
2023/04/23 01:05:41;;;;;;;44.45;38.45;;;13.70;99.90;;;;;;2093007;28;20044;-70
2023/04/23 01:06:43;;;;;;;36.80;31.67;;;13.70;99.90;;;;;;2093827;28;20041;-70
2023/04/23 01:07:45;;;;;;;38.63;33.28;;;13.70;99.90;;;;;;2090059;28;20029;-70
2023/04/23 01:08:46;;;;;;;43.78;36.75;;;13.70;99.90;;;;;;2090466;28;20423;-70
2023/04/23 01:09:49;;;;;;;41.33;35.28;;;13.70;99.90;;;;;;2089411;28;20047;-70
2023/04/23 01:10:50;;;;;;;46.38;40.05;;;13.70;99.90;;;;;;2091137;28;20009;-70
2023/04/23 01:11:50;;;;;;;38.72;33.20;;;13.70;99.90;;;;;;2095435;28;20374;-70
2023/04/23 01:12:51;;;;;;;39.17;34.53;;;13.70;99.90;;;;;;2091547;28;20075;-70
2023/04/23 01:13:52;;;;;;;39.08;33.75;;;13.70;99.90;;;;;;2091093;28;20985;-70
2023/04/23 01:14:53;;;;;;;43.38;38.10;;;13.60;99.90;;;;;;2094459;28;20511;-70
2023/04/23 01:15:53;;;;;;;44.60;39.70;;;13.60;99.90;;;;;;2090079;28;20021;-70
2023/04/23 01:16:55;;;;;;;46.13;37.63;;;13.60;99.90;;;;;;2090567;28;20101;-70
2023/04/23 01:17:57;;;;;;;37.95;33.20;;;13.60;99.90;;;;;;2091232;28;20479;-70
2023/04/23 01:18:57;;;;;;;43.63;37.42;;;13.70;99.90;;;;;;2090110;28;20657;-70
2023/04/23 01:19:58;;;;;;;42.33;37.72;;;13.60;99.90;;;;;;2090491;28;20656;-70
2023/04/23 01:20:59;;;;;;;45.47;39.75;;;13.60;99.90;;;;;;2090832;28;20087;-70
2023/04/23 01:22:00;;;;;;;40.72;34.13;;;13.60;99.90;;;;;;2090449;28;20031;-70
2023/04/23 01:23:04;;;;;;;39.67;35.28;;;13.60;99.90;;;;;;2090959;28;20140;-70
2023/04/23 01:24:06;;;;;;;35.45;31.20;;;13.60;99.90;;;;;;2091184;28;20025;-70
2023/04/23 01:25:07;;;;;;;45.42;39.72;;;13.60;99.90;;;;;;2092307;28;20573;-70
2023/04/23 01:26:09;;;;;;;49.47;40.85;;;13.60;99.90;;;;;;2090961;28;20033;-70
2023/04/23 01:27:10;;;;;;;42.35;35.67;;;13.60;99.90;;;;;;2091509;28;20039;-70
2023/04/23 01:28:11;;;;;;;46.28;39.03;;;13.60;99.90;;;;;;2092206;28;20010;-70
2023/04/23 01:29:12;;;;;;;43.85;37.05;;;13.60;99.90;;;;;;2093423;28;20465;-70
2023/04/23 01:30:14;;;;;;;35.40;30.10;;;13.60;99.90;;;;;;2092442;28;20037;-69
2023/04/23 01:31:18;;;;;;;41.20;35.17;;;13.60;99.90;;;;;;2094186;28;20108;-70
2023/04/23 01:32:22;;;;;;;43.75;38.08;;;13.60;99.90;;;;;;2092909;28;20399;-70
2023/04/23 01:33:22;;;;;;;40.58;34.75;;;13.50;99.90;;;;;;2094889;28;20829;-70
2023/04/23 01:34:23;;;;;;;53.67;39.92;;;13.50;99.90;;;;;;2095100;28;20020;-70
2023/04/23 01:35:24;;;;;;;47.05;40.58;;;13.50;99.90;;;;;;2091307;28;20420;-70
2023/04/23 01:36:26;;;;;;;45.63;38.15;;;13.50;99.90;;;;;;2089786;28;20025;-70
2023/04/23 01:37:28;;;;;;;44.33;39.53;;;13.50;99.90;;;;;;2092783;28;20100;-70
2023/04/23 01:38:31;;;;;;;44.33;37.03;;;13.50;99.90;;;;;;2091998;28;20044;-70
2023/04/23 01:39:32;;;;;;;43.67;37.70;;;13.50;99.90;;;;;;2092390;28;20028;-70
2023/04/23 01:40:33;;;;;;;44.53;38.42;;;13.50;99.90;;;;;;2088801;28;20551;-70
2023/04/23 01:41:34;;;;;;;34.92;30.33;;;13.50;99.90;;;;;;2090088;28;20096;-70
2023/04/23 01:42:35;;;;;;;41.28;35.92;;;13.50;99.90;;;;;;2090005;28;20373;-70
2023/04/23 01:43:36;;;;;;;41.40;35.22;;;13.50;99.90;;;;;;2090670;28;20035;-70
2023/04/23 01:44:37;;;;;;;35.67;30.45;;;13.50;99.90;;;;;;2090088;28;20036;-70
2023/04/23 01:45:38;;;;;;;35.60;31.70;;;13.50;99.90;;;;;;2090543;28;20032;-70
2023/04/23 01:46:38;;;;;;;37.83;33.60;;;13.50;99.90;;;;;;2092116;28;20058;-70
2023/04/23 01:47:40;;;;;;;43.00;37.20;;;13.50;99.90;;;;;;2084039;28;20021;-70
2023/04/23 01:48:41;;;;;;;45.03;38.30;;;13.50;99.90;;;;;;2090859;28;20400;-70
2023/04/23 01:49:42;;;;;;;38.75;33.03;;;13.50;99.90;;;;;;2089518;28;20044;-70
2023/04/23 01:50:42;;;;;;;44.35;37.20;;;13.40;99.90;;;;;;2090207;28;20808;-70
2023/04/23 01:51:43;;;;;;;40.10;35.00;;;13.40;99.90;;;;;;2090540;28;20024;-70
2023/04/23 01:52:45;;;;;;;31.50;27.80;;;13.40;99.90;;;;;;2091082;28;20116;-70
2023/04/23 01:53:45;;;;;;;44.13;37.83;;;13.40;99.90;;;;;;2091313;28;20062;-70
2023/04/23 01:54:47;;;;;;;37.72;33.60;;;13.40;99.90;;;;;;2093231;28;20760;-70
2023/04/23 01:55:50;;;;;;;36.78;32.88;;;13.40;99.90;;;;;;2093479;28;20056;-70
2023/04/23 01:56:53;;;;;;;38.10;32.30;;;13.40;99.90;;;;;;2092321;28;20056;-70
2023/04/23 01:57:54;;;;;;;37.65;32.45;;;13.40;99.90;;;;;;2094336;28;20107;-70
2023/04/23 01:58:55;;;;;;;35.22;31.48;;;13.40;99.90;;;;;;2095400;28;20024;-70
2023/04/23 02:00:07;;;;;;;36.35;31.48;;;13.40;99.90;;;;;;2095011;28;20029;-70
2023/04/23 02:01:07;;;;;;;35.08;30.75;;;13.40;99.90;;;;;;2093916;28;20073;-70
2023/04/23 02:02:12;;;;;;;38.65;34.40;;;13.30;99.90;;;;;;2093468;28;20123;-70
2023/04/23 02:03:13;;;;;;;28.45;25.40;;;13.30;99.90;;;;;;2093208;28;20086;-70
2023/04/23 02:04:14;;;;;;;31.88;28.42;;;13.30;99.90;;;;;;2092126;28;20100;-70
2023/04/23 02:05:17;;;;;;;35.85;30.80;;;13.30;99.90;;;;;;2093152;28;20029;-70
2023/04/23 02:06:18;;;;;;;33.42;29.35;;;13.30;99.90;;;;;;2092571;28;20108;-70
2023/04/23 02:07:18;;;;;;;33.85;29.50;;;13.30;99.90;;;;;;2093623;28;20247;-70
2023/04/23 02:08:19;;;;;;;28.10;25.17;;;13.30;99.90;;;;;;2093350;28;20426;-70
2023/04/23 02:09:20;;;;;;;25.77;23.08;;;13.30;99.90;;;;;;2084659;28;20028;-70
2023/04/23 02:10:21;;;;;;;39.92;31.50;;;13.30;99.90;;;;;;2086666;28;20028;-70
2023/04/23 02:11:21;;;;;;;28.30;25.40;;;13.30;99.90;;;;;;2092736;28;20022;-70
2023/04/23 02:12:22;;;;;;;27.13;24.27;;;13.20;99.90;;;;;;2090312;28;20423;-70
2023/04/23 02:13:22;;;;;;;32.42;29.00;;;13.20;99.90;;;;;;2094059;28;20099;-70
2023/04/23 02:14:23;;;;;;;32.63;29.25;;;13.20;99.90;;;;;;2094060;28;20147;-70
2023/04/23 02:15:24;;;;;;;29.77;26.70;;;13.20;99.90;;;;;;2092787;28;20099;-70
2023/04/23 02:16:27;;;;;;;29.35;26.00;;;13.20;99.90;;;;;;2094950;28;20108;-70
2023/04/23 02:17:28;;;;;;;33.35;29.85;;;13.20;99.90;;;;;;2092119;28;20169;-70
2023/04/23 02:18:28;;;;;;;28.10;25.08;;;13.10;99.90;;;;;;2092925;28;20021;-70
2023/04/23 02:19:33;;;;;;;25.17;22.58;;;13.10;99.90;;;;;;2094204;28;20628;-70
2023/04/23 02:20:37;;;;;;;30.02;26.90;;;13.10;99.90;;;;;;2092372;28;20036;-70
2023/04/23 02:21:38;;;;;;;30.13;26.83;;;13.10;99.90;;;;;;2093994;28;20025;-70
2023/04/23 02:22:40;;;;;;;28.10;25.23;;;13.10;99.90;;;;;;2094385;28;20035;-70
2023/04/23 02:23:40;;;;;;;31.35;27.98;;;13.10;99.90;;;;;;2095780;28;20031;-70
2023/04/23 02:24:41;;;;;;;28.77;25.58;;;13.10;99.90;;;;;;2095563;28;20042;-70
2023/04/23 02:25:42;;;;;;;30.65;27.42;;;13.00;99.90;;;;;;2092475;28;20055;-70
2023/04/23 02:26:42;;;;;;;30.00;26.85;;;13.10;99.90;;;;;;2094403;28;20090;-70
2023/04/23 02:27:43;;;;;;;27.20;24.25;;;13.00;99.90;;;;;;2092221;28;20029;-70
2023/04/23 02:28:45;;;;;;;28.88;25.88;;;13.00;99.90;;;;;;2090641;28;20036;-70
2023/04/23 02:29:46;;;;;;;29.52;26.50;;;13.00;99.90;;;;;;2096367;28;20502;-70
2023/04/23 02:30:47;;;;;;;29.67;26.52;;;13.00;99.90;;;;;;2095763;28;20502;-70
2023/04/23 02:31:48;;;;;;;29.63;26.42;;;13.00;99.90;;;;;;2095973;28;20054;-70
2023/04/23 02:32:48;;;;;;;31.13;27.42;;;12.90;99.90;;;;;;2094199;28;20068;-70
2023/04/23 02:33:50;;;;;;;27.80;24.88;;;12.90;99.90;;;;;;2092397;28;20012;-70
2023/04/23 02:34:50;;;;;;;26.02;23.20;;;12.90;99.90;;;;;;2094716;28;20017;-70
2023/04/23 02:35:51;;;;;;;26.30;23.60;;;12.90;99.90;;;;;;2095613;28;20036;-70
2023/04/23 02:36:51;;;;;;;26.05;23.20;;;12.90;99.90;;;;;;2094668;28;20051;-70
2023/04/23 02:37:53;;;;;;;31.35;27.98;;;12.90;99.90;;;;;;2092850;28;20021;-70
2023/04/23 02:38:53;;;;;;;30.85;26.70;;;12.90;99.90;;;;;;2094546;28;20082;-70
2023/04/23 02:39:54;;;;;;;27.05;24.13;;;12.90;99.90;;;;;;2092513;28;20172;-70
2023/04/23 02:40:54;;;;;;;29.70;26.70;;;12.90;99.90;;;;;;2093445;28;20023;-70
2023/04/23 02:41:55;;;;;;;29.75;26.65;;;12.80;99.90;;;;;;2092761;28;20040;-70
2023/04/23 02:42:56;;;;;;;27.00;23.65;;;12.80;99.90;;;;;;2093429;28;20024;-70
2023/04/23 02:43:56;;;;;;;25.25;22.65;;;12.80;99.90;;;;;;2093538;28;20049;-70
2023/04/23 02:44:57;;;;;;;28.33;25.45;;;12.80;99.90;;;;;;2093901;28;20077;-70
2023/04/23 02:45:57;;;;;;;22.65;20.25;;;12.80;99.90;;;;;;2092213;28;20024;-70
2023/04/23 02:46:58;;;;;;;25.27;22.55;;;12.70;99.90;;;;;;2095224;28;20028;-70
2023/04/23 02:47:58;;;;;;;31.25;25.83;;;12.70;99.90;;;;;;2093902;28;20016;-70
2023/04/23 02:48:59;;;;;;;25.10;22.40;;;12.70;99.90;;;;;;2093821;28;20393;-70
2023/04/23 02:50:04;;;;;;;28.30;25.30;;;12.70;99.90;;;;;;2092055;28;20036;-70
2023/04/23 02:51:07;;;;;;;28.77;25.67;;;12.70;99.90;;;;;;2093395;28;20028;-70
2023/04/23 02:52:07;;;;;;;26.90;24.13;;;12.70;99.90;;;;;;2092886;28;21011;-70
2023/04/23 02:53:08;;;;;;;22.83;20.25;;;12.70;99.90;;;;;;2090788;28;20656;-70
2023/04/23 02:54:08;;;;;;;22.65;20.33;;;12.70;99.90;;;;;;2093745;28;20036;-70
2023/04/23 02:55:09;;;;;;;24.05;21.55;;;12.70;99.90;;;;;;2093840;28;20112;-70
2023/04/23 02:56:10;;;;;;;26.15;23.45;;;12.60;99.90;;;;;;2091811;28;20024;-70
2023/04/23 02:57:13;;;;;;;21.50;19.30;;;12.60;99.90;;;;;;2095294;28;20079;-70
2023/04/23 02:58:13;;;;;;;25.48;22.05;;;12.60;99.90;;;;;;2095159;28;20027;-70
2023/04/23 02:59:14;;;;;;;25.95;23.20;;;12.60;99.90;;;;;;2092920;28;20031;-70
2023/04/23 03:00:15;;;;;;;20.88;18.67;;;12.60;99.90;;;;;;2093483;28;20103;-70
2023/04/23 03:01:16;;;;;;;24.65;22.02;;;12.50;99.90;;;;;;2092758;28;20123;-70
2023/04/23 03:02:16;;;;;;;25.17;22.52;;;12.60;99.90;;;;;;2094029;28;20574;-70
2023/04/23 03:03:17;;;;;;;26.38;22.85;;;12.50;99.90;;;;;;2093157;28;20039;-70
2023/04/23 03:04:18;;;;;;;23.75;21.25;;;12.60;99.90;;;;;;2091711;28;20024;-70
2023/04/23 03:05:18;;;;;;;25.35;22.75;;;12.50;99.90;;;;;;2093337;28;21268;-70
2023/04/23 03:06:19;;;;;;;23.77;21.38;;;12.50;99.90;;;;;;2093081;28;20476;-70
2023/04/23 03:07:19;;;;;;;29.00;25.92;;;12.50;99.90;;;;;;2093097;28;20024;-70
2023/04/23 03:08:20;;;;;;;28.05;25.10;;;12.50;99.90;;;;;;2089724;28;20032;-70
2023/04/23 03:09:21;;;;;;;31.05;27.70;;;12.50;99.90;;;;;;2093320;28;20020;-70
2023/04/23 03:10:22;;;;;;;28.17;25.33;;;12.50;99.90;;;;;;2094969;28;20087;-70
2023/04/23 03:11:22;;;;;;;25.55;22.77;;;12.50;99.90;;;;;;2092152;28;20025;-70
2023/04/23 03:12:23;;;;;;;24.05;21.67;;;12.50;99.90;;;;;;2094101;28;20453;-70
2023/04/23 03:13:24;;;;;;;23.02;19.95;;;12.40;99.90;;;;;;2094231;28;20025;-70
2023/04/23 03:14:25;;;;;;;23.35;20.95;;;12.40;99.90;;;;;;2092404;28;20503;-70
2023/04/23 03:15:26;;;;;;;27.25;24.40;;;12.40;99.90;;;;;;2092453;28;20177;-70
2023/04/23 03:16:27;;;;;;;24.63;22.08;;;12.40;99.90;;;;;;2093413;28;20416;-70
2023/04/23 03:17:28;;;;;;;23.85;21.02;;;12.40;99.90;;;;;;2090604;28;20021;-70
2023/04/23 03:18:29;;;;;;;26.15;23.52;;;12.30;99.90;;;;;;2093804;28;20817;-70
2023/04/23 03:19:29;;;;;;;26.70;23.92;;;12.30;99.90;;;;;;2090486;28;20743;-70
2023/04/23 03:20:30;;;;;;;25.20;20.35;;;12.30;99.90;;;;;;2091314;28;20029;-70
2023/04/23 03:21:30;;;;;;;25.50;22.90;;;12.30;99.90;;;;;;2095205;28;20025;-70
2023/04/23 03:22:31;;;;;;;24.23;21.83;;;12.30;99.90;;;;;;2092467;28;20520;-70
2023/04/23 03:23:31;;;;;;;26.65;23.90;;;12.20;99.90;;;;;;2094247;28;20016;-70
2023/04/23 03:24:33;;;;;;;26.05;23.45;;;12.20;99.90;;;;;;2093794;28;20099;-70
2023/04/23 03:25:34;;;;;;;32.47;29.20;;;12.20;99.90;;;;;;2093015;28;20039;-70
2023/04/23 03:26:34;;;;;;;29.95;26.75;;;12.20;99.90;;;;;;2092437;28;20020;-70
2023/04/23 03:27:35;;;;;;;25.65;23.15;;;12.20;99.90;;;;;;2092857;28;20029;-70
2023/04/23 03:28:35;;;;;;;25.95;23.25;;;12.20;99.90;;;;;;2093420;28;20028;-70
2023/04/23 03:29:36;;;;;;;25.13;22.50;;;12.20;99.90;;;;;;2095440;28;20024;-70
2023/04/23 03:30:36;;;;;;;25.63;22.95;;;12.20;99.90;;;;;;2094371;28;20024;-70
2023/04/23 03:31:37;;;;;;;24.60;22.10;;;12.20;99.90;;;;;;2091969;28;20053;-70
2023/04/23 03:32:38;;;;;;;30.92;27.70;;;12.10;99.90;;;;;;2092739;28;20021;-70
2023/04/23 03:33:38;;;;;;;32.35;28.98;;;12.20;99.90;;;;;;2091375;28;20021;-70
2023/04/23 03:34:39;;;;;;;32.60;29.13;;;12.10;99.90;;;;;;2092023;28;20070;-70
2023/04/23 03:35:39;;;;;;;29.77;26.63;;;12.10;99.90;;;;;;2092766;28;20021;-70
2023/04/23 03:36:40;;;;;;;31.52;28.10;;;12.10;99.90;;;;;;2094197;28;20036;-70
2023/04/23 03:37:40;;;;;;;34.08;30.42;;;12.10;99.90;;;;;;2094268;28;20051;-70
2023/04/23 03:38:41;;;;;;;30.65;27.45;;;12.10;99.90;;;;;;2092799;28;20033;-70
2023/04/23 03:39:41;;;;;;;31.73;28.20;;;12.00;99.90;;;;;;2092478;28;20029;-70
2023/04/23 03:40:42;;;;;;;32.63;29.33;;;12.00;99.90;;;;;;2090972;28;20075;-70
2023/04/23 03:41:42;;;;;;;32.28;28.98;;;12.00;99.90;;;;;;2091984;28;20430;-70
2023/04/23 03:42:43;;;;;;;34.53;30.77;;;12.00;99.90;;;;;;2092692;28;20032;-70
2023/04/23 03:43:44;;;;;;;29.23;26.08;;;12.00;99.90;;;;;;2089591;28;20033;-70
2023/04/23 03:44:44;;;;;;;27.15;23.58;;;12.00;99.90;;;;;;2092424;28;20182;-70
2023/04/23 03:45:45;;;;;;;24.95;22.13;;;12.00;99.90;;;;;;2093973;28;20653;-70
2023/04/23 03:46:45;;;;;;;25.52;22.92;;;12.00;99.90;;;;;;2094307;28;20016;-70
2023/04/23 03:47:46;;;;;;;27.65;24.40;;;12.00;99.90;;;;;;2093507;28;20013;-70
2023/04/23 03:48:46;;;;;;;21.52;19.38;;;12.00;99.90;;;;;;2091310;28;20100;-70
2023/04/23 03:49:47;;;;;;;22.25;19.95;;;12.00;99.90;;;;;;2090558;28;20082;-70
2023/04/23 03:50:48;;;;;;;28.70;25.67;;;11.90;99.90;;;;;;2093408;28;20027;-70
2023/04/23 03:51:48;;;;;;;25.77;23.08;;;11.90;99.90;;;;;;2093498;28;20052;-70
2023/04/23 03:52:49;;;;;;;30.30;25.40;;;12.00;99.90;;;;;;2094394;28;20495;-70
2023/04/23 03:53:50;;;;;;;30.77;27.48;;;11.90;99.90;;;;;;2094430;28;20012;-70
2023/04/23 03:54:51;;;;;;;26.58;22.23;;;11.90;99.90;;;;;;2091731;28;20029;-70
2023/04/23 03:55:51;;;;;;;30.92;27.48;;;11.90;99.90;;;;;;2093792;28;20024;-70
2023/04/23 03:56:53;;;;;;;32.85;29.27;;;11.90;99.90;;;;;;2090363;28;20028;-70
2023/04/23 03:57:54;;;;;;;25.77;23.23;;;11.90;99.90;;;;;;2093156;28;20024;-70
2023/04/23 03:58:54;;;;;;;25.95;23.13;;;11.90;99.90;;;;;;2092272;28;20028;-70
2023/04/23 03:59:55;;;;;;;28.42;25.33;;;11.90;99.90;;;;;;2091874;28;20804;-70
2023/04/23 04:00:56;;;;;;;29.02;25.85;;;11.80;99.90;;;;;;2091038;28;20676;-70
2023/04/23 04:01:57;;;;;;;27.77;23.92;;;11.90;99.90;;;;;;2091723;28;20510;-70
2023/04/23 04:02:59;;;;;;;30.52;27.23;;;11.90;99.90;;;;;;2091644;28;20383;-70
2023/04/23 04:03:59;;;;;;;30.80;27.60;;;11.90;99.90;;;;;;2091328;28;20456;-70
2023/04/23 04:05:00;;;;;;;30.25;27.23;;;11.80;99.90;;;;;;2093061;28;20044;-70
2023/04/23 04:06:01;;;;;;;27.52;24.75;;;11.80;99.90;;;;;;2093697;28;20024;-70
2023/04/23 04:07:02;;;;;;;27.02;24.25;;;11.80;99.90;;;;;;2092361;28;20028;-70
2023/04/23 04:08:03;;;;;;;29.83;26.55;;;11.80;99.90;;;;;;2093980;28;20056;-70
2023/04/23 04:09:06;;;;;;;27.25;24.35;;;11.80;99.90;;;;;;2094355;28;20050;-70
2023/04/23 04:10:07;;;;;;;31.02;27.73;;;11.80;99.90;;;;;;2091412;28;20013;-70
2023/04/23 04:11:08;;;;;;;32.17;28.85;;;11.80;99.90;;;;;;2092039;28;20021;-70
2023/04/23 04:12:08;;;;;;;33.05;29.55;;;11.80;99.90;;;;;;2094420;28;20025;-70
2023/04/23 04:13:09;;;;;;;31.88;28.40;;;11.80;99.90;;;;;;2093627;28;20852;-70
2023/04/23 04:14:10;;;;;;;29.92;26.77;;;11.70;99.90;;;;;;2093013;28;20104;-70
2023/04/23 04:15:10;;;;;;;32.35;28.75;;;11.80;99.90;;;;;;2092575;28;20021;-70
2023/04/23 04:16:11;;;;;;;32.60;28.48;;;11.70;99.90;;;;;;2091257;28;20025;-70
2023/04/23 04:17:13;;;;;;;31.58;28.20;;;11.70;99.90;;;;;;2093312;28;20078;-70
2023/04/23 04:18:14;;;;;;;34.53;29.13;;;11.70;99.90;;;;;;2093820;28;20071;-70
2023/04/23 04:19:15;;;;;;;33.03;29.63;;;11.70;99.90;;;;;;2090752;28;20395;-70
2023/04/23 04:20:15;;;;;;;32.25;28.08;;;11.70;99.90;;;;;;2091990;28;20187;-70
2023/04/23 04:21:17;;;;;;;31.38;27.52;;;11.70;99.90;;;;;;2093279;28;20036;-70
2023/04/23 04:22:18;;;;;;;30.42;27.20;;;11.70;99.90;;;;;;2092680;28;20035;-70
2023/04/23 04:23:18;;;;;;;32.70;28.67;;;11.70;99.90;;;;;;2090309;28;20032;-70
2023/04/23 04:24:20;;;;;;;32.35;28.85;;;11.70;99.90;;;;;;2093018;28;20036;-70
2023/04/23 04:25:23;;;;;;;31.27;27.90;;;11.70;99.90;;;;;;2091482;28;20036;-70
2023/04/23 04:26:24;;;;;;;32.13;28.70;;;11.70;99.90;;;;;;2093349;28;20021;-70
2023/04/23 04:27:24;;;;;;;30.38;27.25;;;11.60;99.90;;;;;;2093006;28;20028;-70
2023/04/23 04:28:25;;;;;;;32.33;28.88;;;11.70;99.90;;;;;;2090476;28;20020;-70
2023/04/23 04:29:26;;;;;;;31.73;28.33;;;11.70;99.90;;;;;;2090452;28;20025;-70
2023/04/23 04:30:26;;;;;;;31.35;28.08;;;11.60;99.90;;;;;;2091321;28;20031;-70
2023/04/23 04:31:28;;;;;;;32.15;28.85;;;11.70;99.90;;;;;;2091729;28;20025;-70
2023/04/23 04:32:28;;;;;;;33.00;29.42;;;11.70;99.90;;;;;;2092473;28;20051;-70
2023/04/23 04:33:29;;;;;;;33.00;29.50;;;11.70;99.90;;;;;;2091387;28;20059;-70
2023/04/23 04:34:30;;;;;;;32.50;29.10;;;11.70;99.90;;;;;;2091623;28;20027;-70
2023/04/23 04:35:30;;;;;;;32.53;29.02;;;11.60;99.90;;;;;;2090844;28;20048;-70
2023/04/23 04:36:31;;;;;;;32.25;28.83;;;11.70;99.90;;;;;;2089535;28;20036;-70
2023/04/23 04:37:32;;;;;;;32.20;28.80;;;11.70;99.90;;;;;;2090280;28;20096;-70
2023/04/23 04:38:33;;;;;;;31.05;27.55;;;11.70;99.90;;;;;;2090917;28;20489;-70
2023/04/23 04:39:33;;;;;;;30.50;27.30;;;11.70;99.90;;;;;;2092138;28;20025;-70
2023/04/23 04:40:34;;;;;;;31.42;28.15;;;11.70;99.90;;;;;;2091116;28;20047;-70
2023/04/23 04:41:36;;;;;;;32.75;29.25;;;11.70;99.90;;;;;;2092914;28;20028;-70
2023/04/23 04:42:38;;;;;;;31.83;28.20;;;11.70;99.90;;;;;;2091779;28;20469;-70
2023/04/23 04:43:40;;;;;;;30.88;27.63;;;11.70;99.90;;;;;;2092734;28;20021;-70
2023/04/23 04:44:42;;;;;;;30.38;27.20;;;11.70;99.90;;;;;;2094798;28;20020;-70
2023/04/23 04:45:43;;;;;;;31.80;28.52;;;11.70;99.90;;;;;;2090556;28;20063;-70
2023/04/23 04:46:44;;;;;;;30.60;27.40;;;11.70;99.90;;;;;;2091767;28;20081;-70
2023/04/23 04:47:45;;;;;;;28.58;25.67;;;11.70;99.90;;;;;;2092645;28;20361;-70
2023/04/23 04:48:49;;;;;;;31.17;27.90;;;11.70;99.90;;;;;;2091328;28;20029;-70
2023/04/23 04:49:49;;;;;;;30.80;27.63;;;11.70;99.90;;;;;;2091434;28;20365;-70
2023/04/23 04:50:51;;;;;;;30.55;27.38;;;11.70;99.90;;;;;;2092640;28;20024;-70
2023/04/23 04:51:53;;;;;;;30.77;27.50;;;11.70;99.90;;;;;;2092280;28;20009;-70
2023/04/23 04:52:53;;;;;;;30.33;27.27;;;11.70;99.90;;;;;;2092775;28;20443;-70
2023/04/23 04:53:55;;;;;;;30.27;27.15;;;11.70;99.90;;;;;;2093382;28;20024;-70
2023/04/23 04:54:56;;;;;;;30.50;27.40;;;11.70;99.90;;;;;;2090181;28;20021;-70
2023/04/23 04:55:56;;;;;;;29.63;26.50;;;11.70;99.90;;;;;;2091165;28;20048;-70
2023/04/23 04:56:57;;;;;;;28.80;25.75;;;11.70;99.90;;;;;;2090076;28;20036;-70
2023/04/23 04:57:57;;;;;;;29.33;26.30;;;11.70;99.90;;;;;;2091417;28;20543;-70
2023/04/23 04:58:58;;;;;;;28.50;25.60;;;11.70;99.90;;;;;;2090672;28;20426;-70
2023/04/23 05:00:02;;;;;;;30.90;27.70;;;11.70;99.90;;;;;;2090909;28;20122;-70
2023/04/23 05:01:03;;;;;;;28.02;25.05;;;11.70;99.90;;;;;;2090804;28;20069;-70
2023/04/23 05:02:04;;;;;;;29.73;26.73;;;11.80;99.90;;;;;;2091689;28;20032;-70
2023/04/23 05:03:05;;;;;;;31.45;26.35;;;11.80;99.90;;;;;;2091004;28;20033;-70
2023/04/23 05:04:06;;;;;;;29.60;26.60;;;11.80;99.90;;;;;;2092926;28;20052;-70
2023/04/23 05:05:07;;;;;;;28.42;25.55;;;11.80;99.90;;;;;;2091496;28;20573;-70
2023/04/23 05:06:08;;;;;;;29.70;26.60;;;11.80;99.90;;;;;;2091003;28;20477;-70
2023/04/23 05:07:08;;;;;;;29.75;26.55;;;11.80;99.90;;;;;;2093254;28;20496;-70
2023/04/23 05:08:09;;;;;;;29.17;26.08;;;11.80;99.90;;;;;;2091867;28;20031;-70
2023/04/23 05:09:10;;;;;;;27.05;24.17;;;11.80;99.90;;;;;;2093519;28;20479;-70
2023/04/23 05:10:12;;;;;;;26.45;23.70;;;11.80;99.90;;;;;;2090547;28;20069;-70